Time;durP1;ratioP1;P1;durP2;ratioP2;P2;SDS_P1;SDS_P2;PMS_P1;PMS_P2;Temp;Humidity;BMP_temperature;BMP_pressure;BME280_temperature;BME280_humidity;BME280_pressure;Samples;Min_cycle;Max_cycle;Signal;HPM_P1;HPM_P2
2023/06/29 00:00:26;;;;;;;2.77;2.57;;;22.00;93.80;;;22.50;nan;100677.63;4996995;28;20643;-65
2023/06/29 00:02:54;;;;;;;2.57;2.47;;;22.00;94.00;;;22.51;nan;100680.09;4993750;28;20618;-66
2023/06/29 00:05:21;;;;;;;2.10;2.00;;;22.00;94.20;;;22.48;nan;100680.47;4996991;28;20650;-66
2023/06/29 00:07:48;;;;;;;3.03;2.57;;;22.00;94.50;;;22.45;nan;100680.84;4993402;28;20641;-67
2023/06/29 00:10:16;;;;;;;2.90;2.70;;;21.90;94.40;;;22.38;nan;100680.75;5008053;28;20711;-66
2023/06/29 00:12:43;;;;;;;2.40;2.30;;;21.90;94.50;;;22.31;nan;100676.38;4993461;28;20680;-66
2023/06/29 00:15:10;;;;;;;2.93;2.60;;;21.90;94.50;;;22.26;nan;100678.75;4991334;28;21035;-66
2023/06/29 00:17:37;;;;;;;2.67;2.03;;;21.80;94.30;;;22.15;nan;100671.22;4991893;28;20635;-70
2023/06/29 00:20:10;;;;;;;2.20;2.10;;;21.80;94.20;;;21.98;nan;100675.06;4993380;28;20715;-66
2023/06/29 00:22:39;;;;;;;2.87;2.60;;;21.70;94.10;;;21.90;nan;100680.47;4991566;28;20642;-68
2023/06/29 00:25:08;;;;;;;2.17;2.07;;;21.70;94.30;;;21.83;nan;100672.41;4991836;28;20613;-65
2023/06/29 00:27:36;;;;;;;2.70;2.50;;;21.50;94.40;;;21.79;nan;100670.25;4982802;28;20630;-69
2023/06/29 00:30:03;;;;;;;3.40;2.43;;;21.50;94.80;;;21.84;nan;100666.09;4999258;28;20669;-68
2023/06/29 00:32:30;;;;;;;2.27;2.17;;;21.40;95.00;;;21.84;nan;100666.09;4995290;28;20645;-65
2023/06/29 00:34:57;;;;;;;2.40;2.30;;;21.50;95.20;;;21.85;nan;100664.28;4994545;28;20669;-64
2023/06/29 00:37:25;;;;;;;2.23;2.13;;;21.50;95.30;;;21.84;nan;100660.81;4993137;28;20692;-66
2023/06/29 00:39:51;;;;;;;2.80;2.60;;;21.40;95.00;;;21.79;nan;100663.13;5000878;28;20647;-65
2023/06/29 00:42:18;;;;;;;5.80;2.53;;;21.40;94.80;;;21.72;nan;100656.91;5012596;28;20625;-65
2023/06/29 00:44:47;;;;;;;2.90;2.70;;;21.30;94.80;;;21.63;nan;100658.00;4995136;28;20723;-66
2023/06/29 00:47:14;;;;;;;1.93;1.83;;;21.30;94.80;;;21.56;nan;100665.84;4992048;28;20662;-69
2023/06/29 00:49:41;;;;;;;3.90;2.47;;;21.20;94.80;;;21.54;nan;100664.38;4995089;28;20681;-65
2023/06/29 00:52:09;;;;;;;2.00;1.90;;;21.10;94.80;;;21.49;nan;100656.13;5009988;28;20594;-66
2023/06/29 00:54:36;;;;;;;2.00;1.90;;;21.10;94.70;;;21.45;nan;100657.47;4978262;28;20630;-66
2023/06/29 00:57:03;;;;;;;2.40;2.30;;;21.00;94.70;;;21.37;nan;100658.41;4975045;28;20654;-66
2023/06/29 00:59:30;;;;;;;1.73;1.63;;;21.00;94.70;;;21.32;nan;100651.94;4996474;28;20641;-68
2023/06/29 01:01:57;;;;;;;1.77;1.73;;;20.90;94.80;;;21.30;nan;100656.63;4999193;28;20646;-66
2023/06/29 01:04:27;;;;;;;1.87;1.77;;;20.90;94.80;;;21.21;nan;100647.91;4990870;28;20638;-68
2023/06/29 01:07:36;;;;;;;4.10;2.50;;;20.90;94.90;;;21.23;nan;100648.53;4990120;28;20666;-66
2023/06/29 01:10:05;;;;;;;2.37;2.17;;;20.80;95.10;;;21.26;nan;100645.53;4982134;28;20680;-67
2023/06/29 01:12:33;;;;;;;2.70;2.50;;;20.80;95.10;;;21.26;nan;100645.53;4979269;28;20661;-67
2023/06/29 01:15:02;;;;;;;2.40;2.20;;;20.80;95.00;;;21.30;nan;100646.84;4977865;28;20637;-69
2023/06/29 01:17:33;;;;;;;2.10;1.90;;;20.90;95.10;;;21.30;nan;100646.00;4996579;28;20658;-67
2023/06/29 01:20:01;;;;;;;2.40;2.30;;;20.80;95.10;;;21.31;nan;100640.53;4993467;28;20621;-66
2023/06/29 01:22:35;;;;;;;2.00;1.90;;;20.90;95.20;;;21.30;nan;100636.22;4974279;28;20626;-66
2023/06/29 01:25:02;;;;;;;2.10;2.00;;;20.90;95.20;;;21.26;nan;100642.88;4989845;28;20696;-67
2023/06/29 01:27:30;;;;;;;1.70;1.60;;;20.80;95.30;;;21.29;nan;100633.75;4990701;28;20713;-67
2023/06/29 01:30:00;;;;;;;2.83;2.30;;;20.80;95.40;;;21.27;nan;100633.94;4991509;28;20739;-66
2023/06/29 01:32:34;;;;;;;2.63;2.43;;;20.80;95.50;;;21.27;nan;100636.59;4991852;28;20613;-68
2023/06/29 01:35:02;;;;;;;2.10;2.00;;;20.80;95.60;;;21.29;nan;100631.94;4971137;28;20642;-68
2023/06/29 01:37:52;;;;;;;1.90;1.80;;;20.80;95.70;;;21.29;nan;100628.44;4990365;28;20674;-67
2023/06/29 01:40:28;;;;;;;2.20;2.07;;;20.80;95.80;;;21.28;nan;100632.91;4985024;28;20672;-65
2023/06/29 01:42:56;;;;;;;1.93;1.83;;;20.90;95.90;;;21.26;nan;100628.78;4985943;28;20669;-66
2023/06/29 01:45:24;;;;;;;2.27;2.17;;;20.80;96.00;;;21.21;nan;100631.19;4997060;28;20997;-69
2023/06/29 01:47:53;;;;;;;3.93;2.50;;;20.80;96.10;;;21.13;nan;100626.75;4991484;28;20606;-68
2023/06/29 01:50:20;;;;;;;2.00;1.90;;;20.70;96.30;;;21.11;nan;100626.09;4998081;28;20765;-66
2023/06/29 01:52:47;;;;;;;2.10;1.97;;;20.70;96.40;;;21.11;nan;100620.78;4975103;28;20967;-64
2023/06/29 01:55:14;;;;;;;2.00;1.87;;;20.70;96.70;;;21.12;nan;100617.16;4990301;28;20661;-65
2023/06/29 01:57:41;;;;;;;2.20;2.00;;;20.70;96.80;;;21.12;nan;100619.81;4991226;28;20626;-65
2023/06/29 02:00:09;;;;;;;2.13;2.00;;;20.70;97.00;;;21.12;nan;100622.47;4990258;28;20634;-67
2023/06/29 02:02:36;;;;;;;1.73;1.63;;;20.70;97.20;;;21.14;nan;100631.06;4983208;28;20622;-65
2023/06/29 02:05:04;;;;;;;3.67;1.83;;;20.70;97.40;;;21.14;nan;100623.09;4983735;28;20642;-65
2023/06/29 02:07:31;;;;;;;2.37;2.27;;;20.70;97.50;;;21.13;nan;100631.22;4980639;28;20661;-66
2023/06/29 02:09:59;;;;;;;2.20;2.10;;;20.70;97.50;;;21.12;nan;100627.75;4987451;28;20646;-65
2023/06/29 02:12:26;;;;;;;2.07;1.97;;;20.70;97.50;;;21.09;nan;100633.41;4982650;28;21150;-70
2023/06/29 02:14:53;;;;;;;2.03;1.93;;;20.70;97.40;;;21.07;nan;100627.47;4989208;28;20630;-66
2023/06/29 02:17:20;;;;;;;2.10;2.00;;;20.60;97.30;;;21.06;nan;100630.31;4988047;28;20666;-66
2023/06/29 02:19:47;;;;;;;4.33;1.87;;;20.60;97.20;;;20.99;nan;100624.00;4988735;28;20634;-66
2023/06/29 02:22:14;;;;;;;2.17;2.00;;;20.60;97.20;;;20.92;nan;100637.16;4988815;28;20634;-66
2023/06/29 02:24:41;;;;;;;1.90;1.80;;;20.50;97.30;;;20.86;nan;100633.41;5001578;28;20634;-66
2023/06/29 02:27:08;;;;;;;2.07;1.97;;;20.50;97.40;;;20.84;nan;100634.56;5006977;28;20657;-67
2023/06/29 02:29:35;;;;;;;2.00;1.90;;;20.40;97.40;;;20.80;nan;100635.91;4991863;28;20681;-64
2023/06/29 02:32:02;;;;;;;2.40;2.20;;;20.40;97.50;;;20.74;nan;100626.81;4991119;28;20618;-67
2023/06/29 02:34:30;;;;;;;2.20;2.00;;;20.30;98.00;;;20.70;nan;100627.34;4981735;28;20658;-66
2023/06/29 02:36:57;;;;;;;1.97;1.77;;;20.30;97.80;;;20.69;nan;100631.00;5003404;28;20673;-65
2023/06/29 02:39:24;;;;;;;1.87;1.80;;;20.30;97.80;;;20.63;nan;100626.41;4990590;28;20629;-66
2023/06/29 02:41:53;;;;;;;5.23;2.40;;;20.30;97.80;;;20.59;nan;100619.81;4998171;28;20630;-66
2023/06/29 02:44:21;;;;;;;2.03;1.93;;;20.20;98.00;;;20.58;nan;100618.16;4996128;28;20617;-68
2023/06/29 02:46:48;;;;;;;2.03;1.87;;;20.20;98.00;;;20.55;nan;100608.72;4994684;28;20667;-66
2023/06/29 02:49:15;;;;;;;2.27;1.73;;;20.20;98.20;;;20.55;nan;100607.91;4990424;28;20626;-66
2023/06/29 02:51:42;;;;;;;2.50;2.40;;;20.20;98.40;;;20.52;nan;100608.25;4996811;28;20697;-65
2023/06/29 02:54:09;;;;;;;2.23;2.03;;;20.10;98.40;;;20.50;nan;100605.78;4999596;28;20610;-67
2023/06/29 02:56:36;;;;;;;2.10;2.00;;;20.10;98.50;;;20.50;nan;100599.66;5002942;28;21264;-66
2023/06/29 02:59:03;;;;;;;2.10;2.00;;;20.10;98.50;;;20.46;nan;100598.34;4993346;28;20630;-66
2023/06/29 03:01:30;;;;;;;2.50;2.40;;;20.10;98.50;;;20.46;nan;100598.34;4993651;28;20653;-66
2023/06/29 03:03:57;;;;;;;9.50;2.20;;;20.10;98.70;;;20.43;nan;100598.69;4996622;28;21002;-67
2023/06/29 03:06:24;;;;;;;1.93;1.83;;;20.00;98.80;;;20.38;nan;100601.06;5013335;28;20645;-66
2023/06/29 03:08:51;;;;;;;2.07;1.97;;;20.00;98.90;;;20.29;nan;100591.50;4991017;28;20645;-65
2023/06/29 03:11:18;;;;;;;2.20;2.10;;;19.90;99.30;;;20.31;nan;100592.16;4999504;28;21240;-64
2023/06/29 03:13:46;;;;;;;2.40;2.20;;;19.90;99.40;;;20.31;nan;100597.44;4985924;28;20637;-66
2023/06/29 03:16:13;;;;;;;2.20;2.10;;;19.90;99.40;;;20.31;nan;100605.38;4973537;28;20658;-68
2023/06/29 03:18:40;;;;;;;2.27;2.17;;;19.90;99.40;;;20.31;nan;100600.09;4990872;28;20642;-66
2023/06/29 03:21:08;;;;;;;2.87;2.67;;;19.90;99.60;;;20.34;nan;100591.78;4973033;28;21201;-68
2023/06/29 03:23:43;;;;;;;2.23;2.10;;;19.90;99.60;;;20.34;nan;100600.56;4979108;28;20623;-69
2023/06/29 03:26:10;;;;;;;2.77;2.57;;;20.00;99.50;;;20.34;nan;100595.25;4994001;28;20665;-66
2023/06/29 03:28:37;;;;;;;2.30;2.20;;;20.00;99.50;;;20.35;nan;100593.44;4994777;28;20638;-68
2023/06/29 03:31:04;;;;;;;2.40;2.20;;;20.00;99.40;;;20.33;nan;100595.44;4992898;28;21272;-66
2023/06/29 03:33:32;;;;;;;2.37;2.23;;;20.00;99.40;;;20.29;nan;100596.78;4975495;28;21126;-66
2023/06/29 03:35:59;;;;;;;2.40;2.30;;;19.90;99.40;;;20.24;nan;100599.97;5004407;28;21306;-66
2023/06/29 03:38:26;;;;;;;4.10;2.50;;;19.90;99.60;;;20.17;nan;100608.75;4991214;28;20654;-68
2023/06/29 03:40:53;;;;;;;3.90;2.10;;;19.80;99.80;;;20.09;nan;100604.28;4993024;28;20625;-65
2023/06/29 03:43:20;;;;;;;1.90;1.80;;;19.80;99.90;;;20.02;nan;100612.09;4986834;28;20649;-67
2023/06/29 03:45:46;;;;;;;6.00;2.17;;;19.70;99.90;;;19.98;nan;100610.78;5002061;28;20661;-66
2023/06/29 03:48:13;;;;;;;2.40;2.30;;;19.60;99.90;;;20.03;nan;100603.16;5011273;28;20620;-64
2023/06/29 03:50:40;;;;;;;2.37;2.17;;;19.70;99.90;;;20.02;nan;100598.84;5005127;28;20653;-65
2023/06/29 03:53:08;;;;;;;2.93;2.73;;;19.70;99.90;;;20.10;nan;100590.88;4990413;28;20637;-65
2023/06/29 03:55:35;;;;;;;4.60;2.97;;;19.70;99.90;;;20.24;nan;100588.53;4991980;28;20654;-67
2023/06/29 03:58:02;;;;;;;3.13;2.83;;;19.80;99.90;;;20.38;nan;100579.84;4992544;28;20626;-66
2023/06/29 04:00:29;;;;;;;2.87;2.67;;;19.90;99.90;;;20.55;nan;100581.41;4990383;28;20696;-67
2023/06/29 04:02:56;;;;;;;3.40;2.70;;;20.10;99.90;;;20.71;nan;100579.47;4992363;28;20609;-65
2023/06/29 04:05:23;;;;;;;2.90;2.70;;;20.20;99.70;;;20.84;nan;100581.53;4992297;28;20638;-66
2023/06/29 04:07:50;;;;;;;2.80;2.40;;;20.30;99.40;;;20.99;nan;100585.06;4991251;28;20618;-68
2023/06/29 04:10:17;;;;;;;3.23;2.93;;;20.60;99.30;;;21.20;nan;100585.22;4992036;28;20649;-65
2023/06/29 04:12:44;;;;;;;3.20;2.37;;;20.70;99.00;;;21.40;nan;100588.22;4991135;28;21500;-67
2023/06/29 04:15:11;;;;;;;3.10;2.90;;;20.90;98.60;;;21.58;nan;100584.19;4992784;28;20634;-64
2023/06/29 04:17:38;;;;;;;6.83;2.27;;;21.10;98.20;;;21.78;nan;100586.31;4988094;28;20683;-68
2023/06/29 04:20:06;;;;;;;2.90;2.80;;;21.30;97.70;;;21.95;nan;100585.97;4982954;28;20638;-66
2023/06/29 04:22:33;;;;;;;3.43;2.57;;;21.40;97.30;;;22.10;nan;100596.56;4973171;28;21030;-66
2023/06/29 04:25:00;;;;;;;3.23;2.80;;;21.60;97.00;;;22.24;nan;100585.91;4989320;28;20626;-65
2023/06/29 04:27:26;;;;;;;3.43;3.13;;;21.70;96.90;;;22.45;nan;100585.13;4986237;28;20662;-70
2023/06/29 04:29:53;;;;;;;2.30;2.20;;;21.90;96.60;;;22.62;nan;100588.38;4987231;28;20638;-65
2023/06/29 04:32:20;;;;;;;2.63;2.43;;;22.10;96.20;;;22.72;nan;100587.06;4987280;28;20652;-68
2023/06/29 04:34:47;;;;;;;3.33;3.03;;;22.30;95.90;;;22.82;nan;100582.28;4986686;28;20677;-68
2023/06/29 04:37:15;;;;;;;2.57;2.37;;;22.40;95.60;;;22.98;nan;100576.69;4990405;28;21047;-69
2023/06/29 04:39:41;;;;;;;2.37;2.27;;;22.50;95.50;;;23.21;nan;100581.81;4991708;28;20633;-67
2023/06/29 04:42:13;;;;;;;2.70;2.57;;;22.70;95.10;;;23.42;nan;100594.28;4991493;28;20638;-66
2023/06/29 04:44:40;;;;;;;2.90;2.47;;;22.90;94.70;;;23.60;nan;100591.91;4998845;28;20623;-66
2023/06/29 04:47:07;;;;;;;2.07;1.90;;;23.10;94.30;;;23.81;nan;100587.34;4990451;28;20675;-69
2023/06/29 04:49:37;;;;;;;2.80;2.60;;;23.30;94.00;;;24.00;nan;100577.78;4991604;28;21205;-67
2023/06/29 04:52:05;;;;;;;2.33;2.23;;;23.50;93.60;;;24.18;nan;100575.44;4969847;28;20670;-66
2023/06/29 04:54:33;;;;;;;2.10;1.97;;;23.70;93.20;;;24.41;nan;100575.94;4990492;28;20635;-66
2023/06/29 04:57:00;;;;;;;4.63;2.90;;;23.90;92.90;;;24.42;nan;100582.94;4994338;28;20662;-66
2023/06/29 04:59:28;;;;;;;6.10;2.93;;;24.00;92.90;;;24.67;nan;100580.50;4993774;28;20650;-65
2023/06/29 05:01:55;;;;;;;5.47;3.30;;;24.20;92.90;;;24.95;nan;100575.84;4988550;28;21186;-66
2023/06/29 05:04:22;;;;;;;6.53;3.70;;;24.40;92.60;;;25.30;nan;100576.44;4996706;28;21352;-66
2023/06/29 05:06:49;;;;;;;2.90;2.70;;;24.70;92.20;;;25.56;nan;100581.78;4990966;28;20674;-67
2023/06/29 05:09:17;;;;;;;2.67;2.53;;;25.00;91.70;;;25.61;nan;100579.31;4991316;28;20634;-66
2023/06/29 05:11:44;;;;;;;4.37;3.43;;;25.10;91.40;;;25.55;nan;100582.00;4990061;28;21039;-65
2023/06/29 05:14:11;;;;;;;4.10;3.63;;;25.10;91.40;;;25.42;nan;100574.84;4988996;28;20642;-63
2023/06/29 05:16:38;;;;;;;4.10;3.23;;;25.00;91.30;;;25.32;nan;100571.75;4988993;28;20670;-66
2023/06/29 05:19:05;;;;;;;4.57;3.27;;;24.90;91.60;;;25.45;nan;100574.41;4989823;28;21217;-67
2023/06/29 05:21:32;;;;;;;3.23;2.90;;;25.00;92.00;;;25.70;nan;100572.75;4990524;28;20623;-66
2023/06/29 05:23:59;;;;;;;2.67;2.57;;;25.20;91.70;;;25.90;nan;100580.66;4990313;28;20602;-65
2023/06/29 05:26:26;;;;;;;3.67;3.37;;;25.40;91.50;;;25.93;nan;100578.41;4989465;28;20677;-68
2023/06/29 05:28:54;;;;;;;3.77;3.43;;;25.50;91.30;;;25.93;nan;100577.59;4990798;28;21197;-66
2023/06/29 05:31:32;;;;;;;3.20;3.00;;;25.40;91.20;;;25.88;nan;100583.56;5002390;28;20662;-65
2023/06/29 05:33:59;;;;;;;4.60;4.20;;;25.40;91.00;;;25.78;nan;100579.69;5008508;28;20609;-67
2023/06/29 05:36:26;;;;;;;5.67;3.20;;;25.40;91.30;;;25.89;nan;100577.19;5005664;28;20672;-67
2023/06/29 05:38:53;;;;;;;3.80;3.50;;;25.40;91.30;;;25.98;nan;100583.94;4983378;28;20638;-67
2023/06/29 05:41:20;;;;;;;4.00;3.70;;;25.50;91.30;;;26.09;nan;100585.16;4990489;28;21025;-65
2023/06/29 05:43:47;;;;;;;6.60;3.83;;;25.60;91.30;;;26.10;nan;100579.63;4974660;28;20583;-65
2023/06/29 05:46:14;;;;;;;3.50;3.20;;;25.70;91.40;;;26.17;nan;100573.41;4993344;28;21245;-67
2023/06/29 05:48:41;;;;;;;4.50;3.90;;;25.70;91.20;;;26.41;nan;100570.81;4990340;28;21192;-65
2023/06/29 05:51:08;;;;;;;4.30;3.90;;;25.90;91.00;;;26.75;nan;100566.91;4992434;28;20682;-68
2023/06/29 05:53:35;;;;;;;5.60;4.23;;;26.30;90.70;;;27.08;nan;100564.81;4983967;28;20634;-66
2023/06/29 05:56:02;;;;;;;3.47;3.27;;;26.60;90.40;;;27.47;nan;100569.81;4987032;28;20696;-67
2023/06/29 05:58:30;;;;;;;2.20;2.10;;;27.00;90.10;;;27.74;nan;100561.50;4984641;28;20653;-64
2023/06/29 06:00:57;;;;;;;3.83;3.53;;;27.30;88.60;;;27.97;nan;100561.69;4984958;28;20672;-66
2023/06/29 06:03:24;;;;;;;7.60;4.03;;;27.50;87.40;;;28.23;nan;100564.84;4989660;28;20628;-66
2023/06/29 06:05:51;;;;;;;3.53;3.23;;;27.80;86.80;;;28.56;nan;100563.59;4989928;28;20670;-68
2023/06/29 06:08:18;;;;;;;3.60;3.33;;;28.10;85.80;;;28.80;nan;100559.94;4991662;28;20606;-66
2023/06/29 06:10:46;;;;;;;3.23;2.93;;;28.40;84.90;;;29.10;nan;100564.19;4990367;28;21252;-68
2023/06/29 06:13:13;;;;;;;4.17;3.30;;;28.60;83.50;;;29.24;nan;100564.00;4987203;28;20627;-67
2023/06/29 06:15:41;;;;;;;4.03;3.37;;;28.80;82.80;;;29.59;nan;100562.09;4984208;28;20674;-66
2023/06/29 06:18:08;;;;;;;3.00;2.80;;;29.00;81.90;;;29.98;nan;100569.41;4986806;28;20618;-67
2023/06/29 06:20:35;;;;;;;3.90;3.60;;;29.40;80.90;;;30.35;nan;100559.94;4984762;28;21080;-68
2023/06/29 06:23:02;;;;;;;3.80;2.50;;;29.80;79.80;;;30.64;nan;100566.13;4990387;28;20641;-67
2023/06/29 06:25:29;;;;;;;3.60;3.30;;;30.10;78.80;;;30.90;nan;100564.72;4989201;28;20666;-68
2023/06/29 06:27:56;;;;;;;5.93;2.80;;;30.30;77.80;;;31.23;nan;100565.50;4992227;28;20610;-67
2023/06/29 06:30:23;;;;;;;3.50;3.30;;;30.60;76.50;;;31.53;nan;100564.34;4986050;28;20643;-69
2023/06/29 06:32:50;;;;;;;3.53;3.33;;;31.00;74.90;;;31.80;nan;100560.66;4998738;28;20640;-64
2023/06/29 06:35:18;;;;;;;2.93;2.63;;;31.20;74.00;;;32.20;nan;100559.56;5001483;28;20627;-66
2023/06/29 06:37:45;;;;;;;3.47;2.97;;;31.60;73.30;;;32.63;nan;100560.28;4992668;28;20650;-68
2023/06/29 06:40:15;;;;;;;4.63;4.17;;;32.00;72.50;;;32.87;nan;100555.34;4992201;28;20634;-73
2023/06/29 06:42:42;;;;;;;6.97;3.90;;;32.30;71.10;;;33.36;nan;100553.28;4980332;28;21235;-67
2023/06/29 06:45:10;;;;;;;3.20;3.00;;;32.70;69.80;;;33.85;nan;100553.84;4983902;28;20643;-62
2023/06/29 06:47:37;;;;;;;4.40;4.00;;;33.20;68.80;;;34.22;nan;100554.53;4969141;28;20653;-66
2023/06/29 06:50:06;;;;;;;3.80;3.47;;;33.60;67.60;;;34.58;nan;100555.44;4983657;28;21017;-66
2023/06/29 06:52:33;;;;;;;3.47;3.10;;;34.00;66.70;;;34.91;nan;100563.84;4969737;28;21237;-70
2023/06/29 06:55:01;;;;;;;3.70;3.47;;;34.40;65.80;;;35.35;nan;100555.16;4995780;28;20642;-65
2023/06/29 06:57:28;;;;;;;7.47;3.87;;;34.80;64.90;;;35.95;nan;100560.41;4990512;28;20670;-69
2023/06/29 06:59:55;;;;;;;3.27;2.97;;;35.40;63.60;;;36.27;nan;100555.34;4988203;28;20646;-67
2023/06/29 07:02:22;;;;;;;4.97;3.60;;;35.80;62.00;;;36.46;nan;100555.53;4990145;28;20636;-67
2023/06/29 07:04:49;;;;;;;4.10;3.80;;;36.00;61.30;;;36.93;nan;100560.38;4991125;28;20653;-66
2023/06/29 07:07:16;;;;;;;4.37;4.07;;;36.50;60.60;;;37.03;nan;100554.81;4986934;28;20674;-65
2023/06/29 07:09:44;;;;;;;3.57;3.30;;;36.70;59.50;;;37.43;nan;100551.72;4996949;28;20642;-70
2023/06/29 07:12:11;;;;;;;2.90;2.70;;;37.00;58.50;;;37.37;nan;100550.16;4987270;28;21061;-65
2023/06/29 07:14:38;;;;;;;3.50;3.30;;;37.10;57.60;;;37.06;nan;100554.22;4990066;28;21241;-69
2023/06/29 07:17:06;;;;;;;3.80;3.50;;;36.80;57.20;;;36.82;nan;100542.47;4988570;28;20670;-67
2023/06/29 07:19:33;;;;;;;4.93;4.23;;;36.60;57.60;;;36.93;nan;100541.31;4989700;28;20990;-64
2023/06/29 07:22:03;;;;;;;6.90;3.70;;;36.70;56.90;;;36.85;nan;100541.88;4989376;28;21204;-64
2023/06/29 07:24:33;;;;;;;4.03;3.83;;;36.60;57.00;;;36.54;nan;100536.72;4992873;28;21219;-67
2023/06/29 07:27:00;;;;;;;4.90;4.13;;;36.30;57.20;;;36.05;nan;100540.56;5006255;28;20657;-68
2023/06/29 07:29:30;;;;;;;3.10;2.80;;;35.90;57.60;;;35.75;nan;100536.06;4989745;28;20626;-67
2023/06/29 07:31:57;;;;;;;4.63;4.33;;;35.50;58.10;;;35.26;nan;100530.50;5001765;28;21441;-67
2023/06/29 07:34:24;;;;;;;4.30;4.00;;;35.00;58.80;;;34.87;nan;100537.56;5008158;28;20597;-68
2023/06/29 07:36:51;;;;;;;4.23;3.77;;;34.60;59.50;;;34.53;nan;100537.28;4992706;28;20694;-68
2023/06/29 07:39:19;;;;;;;4.27;3.97;;;34.30;60.10;;;34.43;nan;100531.84;4981976;28;20650;-68
2023/06/29 07:41:46;;;;;;;4.70;4.30;;;34.10;60.40;;;34.04;nan;100531.47;4986358;28;20980;-66
2023/06/29 07:44:14;;;;;;;7.77;4.70;;;33.80;60.60;;;33.51;nan;100524.47;4996260;28;21003;-68
2023/06/29 07:46:41;;;;;;;4.73;4.37;;;33.30;61.30;;;32.96;nan;100521.38;4985652;28;21254;-68
2023/06/29 07:49:08;;;;;;;4.83;4.43;;;32.90;61.90;;;32.67;nan;100526.28;4992861;28;20606;-67
2023/06/29 07:51:35;;;;;;;4.50;4.10;;;32.40;62.50;;;32.87;nan;100518.34;4995202;28;21406;-68
2023/06/29 07:54:03;;;;;;;3.57;3.27;;;32.50;63.10;;;34.22;nan;100525.53;4991312;28;20630;-67
2023/06/29 07:56:32;;;;;;;3.10;2.73;;;33.40;62.20;;;35.27;nan;100528.59;4992481;28;20646;-68
2023/06/29 07:59:02;;;;;;;4.93;3.60;;;34.60;60.40;;;35.43;nan;100522.84;4987424;28;20686;-67
2023/06/29 08:01:29;;;;;;;4.90;4.47;;;35.00;59.30;;;35.30;nan;100523.41;4991200;28;20681;-67
2023/06/29 08:03:56;;;;;;;5.07;4.57;;;34.90;59.10;;;35.50;nan;100526.09;4992169;28;20614;-68
2023/06/29 08:06:31;;;;;;;4.60;4.20;;;35.00;58.90;;;35.83;nan;100514.56;4991251;28;20669;-68
2023/06/29 08:09:01;;;;;;;5.47;5.00;;;35.40;58.10;;;36.23;nan;100518.97;4992814;28;20738;-68
2023/06/29 08:11:29;;;;;;;4.90;4.10;;;35.80;57.70;;;36.66;nan;100522.75;4991007;28;20674;-66
2023/06/29 08:13:56;;;;;;;6.20;5.27;;;36.20;56.90;;;36.64;nan;100518.69;4992075;28;20626;-68
2023/06/29 08:16:23;;;;;;;4.87;4.47;;;36.30;56.60;;;36.45;nan;100521.28;4989082;28;20672;-68
2023/06/29 08:18:50;;;;;;;4.33;3.93;;;36.10;56.50;;;36.79;nan;100518.56;4980362;28;20614;-68
2023/06/29 08:21:17;;;;;;;4.47;4.07;;;36.30;56.80;;;37.43;nan;100515.50;4989158;28;20645;-68
2023/06/29 08:23:46;;;;;;;4.43;4.10;;;36.80;55.50;;;38.07;nan;100515.78;4989522;28;20641;-68
2023/06/29 08:26:13;;;;;;;4.37;3.97;;;37.50;54.90;;;38.28;nan;100517.13;4997867;28;20665;-68
2023/06/29 08:28:40;;;;;;;4.70;4.40;;;37.80;54.30;;;38.47;nan;100508.94;4992145;28;20646;-67
2023/06/29 08:31:07;;;;;;;4.50;4.07;;;38.10;53.90;;;38.92;nan;100516.38;4988267;28;21450;-69
2023/06/29 08:33:34;;;;;;;4.43;3.97;;;38.50;53.30;;;38.93;nan;100522.63;4994126;28;20630;-68
2023/06/29 08:36:01;;;;;;;6.53;4.30;;;38.60;52.80;;;39.21;nan;100507.97;5004245;28;20743;-70
2023/06/29 08:38:28;;;;;;;4.20;3.90;;;38.80;52.40;;;39.44;nan;100512.41;4991576;28;20649;-68
2023/06/29 08:40:59;;;;;;;5.80;3.73;;;39.00;51.60;;;39.70;nan;100516.22;4990972;28;20634;-68
2023/06/29 08:43:26;;;;;;;5.53;5.03;;;39.30;51.50;;;39.71;nan;100512.41;4993330;28;20637;-69
2023/06/29 08:45:53;;;;;;;3.77;3.50;;;39.30;51.00;;;39.40;nan;100503.22;5004191;28;20666;-68
2023/06/29 08:48:22;;;;;;;3.30;3.10;;;39.00;51.00;;;39.03;nan;100511.53;4991444;28;21056;-68
2023/06/29 08:51:02;;;;;;;3.13;2.93;;;38.70;51.50;;;38.44;nan;100502.16;4991322;28;20638;-65
2023/06/29 08:53:29;;;;;;;4.83;3.60;;;38.00;51.80;;;37.93;nan;100501.28;4991059;28;20602;-67
2023/06/29 08:55:57;;;;;;;3.57;3.23;;;37.40;52.00;;;37.42;nan;100487.47;4972694;28;20666;-66
2023/06/29 08:58:25;;;;;;;4.20;3.80;;;36.90;52.30;;;36.76;nan;100491.97;4991221;28;20657;-66
2023/06/29 09:00:53;;;;;;;7.20;4.47;;;36.30;52.90;;;36.06;nan;100485.94;4976994;28;20660;-67
2023/06/29 09:03:25;;;;;;;3.93;3.67;;;35.70;53.40;;;35.54;nan;100477.53;4992225;28;20622;-66
2023/06/29 09:05:55;;;;;;;3.50;3.20;;;35.10;54.10;;;35.27;nan;100471.63;4972750;28;21039;-67
2023/06/29 09:08:26;;;;;;;4.10;3.50;;;34.80;54.40;;;35.05;nan;100483.59;4982742;28;21048;-65
2023/06/29 09:10:54;;;;;;;4.70;4.27;;;34.50;54.90;;;34.85;nan;100475.47;4989465;28;20981;-68
2023/06/29 09:13:33;;;;;;;5.97;3.20;;;34.30;55.40;;;34.44;nan;100479.25;4994432;28;20650;-68
2023/06/29 09:16:00;;;;;;;8.63;4.03;;;34.00;55.30;;;34.22;nan;100478.72;4991367;28;20734;-67
2023/06/29 09:18:28;;;;;;;4.90;3.40;;;33.70;55.70;;;34.01;nan;100477.06;4992581;28;20637;-66
2023/06/29 09:20:56;;;;;;;4.20;3.90;;;33.50;56.30;;;33.81;nan;100474.25;4995849;28;20618;-68
2023/06/29 09:23:28;;;;;;;4.43;4.00;;;33.30;56.80;;;33.49;nan;100471.69;5000260;28;21000;-65
2023/06/29 09:25:56;;;;;;;4.03;3.40;;;33.00;56.50;;;32.95;nan;100468.38;4978379;28;21230;-68
2023/06/29 09:28:24;;;;;;;3.10;2.90;;;32.60;56.80;;;32.64;nan;100469.25;5004090;28;20633;-67
2023/06/29 09:30:51;;;;;;;3.90;3.50;;;32.20;57.40;;;32.29;nan;100467.03;4964499;28;20653;-67
2023/06/29 09:33:20;;;;;;;11.50;3.10;;;31.80;58.10;;;32.08;nan;100463.34;4998029;28;20666;-67
2023/06/29 09:35:51;;;;;;;5.07;3.20;;;31.60;58.50;;;31.85;nan;100466.31;4993750;28;20693;-69
2023/06/29 09:38:20;;;;;;;2.90;2.70;;;31.40;58.70;;;31.55;nan;100460.56;4993572;28;21213;-68
2023/06/29 09:40:53;;;;;;;3.00;2.80;;;31.10;59.00;;;31.12;nan;100455.09;4996653;28;20632;-70
2023/06/29 09:43:25;;;;;;;2.43;2.33;;;30.70;59.30;;;30.84;nan;100458.69;5007779;28;20687;-67
2023/06/29 09:46:04;;;;;;;2.67;2.47;;;30.40;59.80;;;30.74;nan;100461.25;5005394;28;21306;-68
2023/06/29 09:48:31;;;;;;;3.03;2.80;;;30.30;60.00;;;30.69;nan;100450.38;4991750;28;20614;-65
2023/06/29 09:51:04;;;;;;;2.33;2.23;;;30.10;59.80;;;30.67;nan;100459.81;5002006;28;21245;-68
2023/06/29 09:53:33;;;;;;;2.47;2.27;;;30.10;59.80;;;30.53;nan;100454.75;4990510;28;20670;-67
2023/06/29 09:56:02;;;;;;;2.10;2.00;;;30.00;60.40;;;30.40;nan;100454.22;4997159;28;20648;-67
2023/06/29 09:58:30;;;;;;;2.00;1.90;;;29.90;60.20;;;30.26;nan;100460.97;4996300;28;21223;-66
2023/06/29 10:00:59;;;;;;;1.80;1.70;;;29.70;60.30;;;30.02;nan;100457.56;4990856;28;21188;-68
2023/06/29 10:03:27;;;;;;;1.87;1.77;;;29.50;60.60;;;29.83;nan;100456.97;4990832;28;20642;-67
2023/06/29 10:05:59;;;;;;;3.03;2.30;;;29.30;60.90;;;29.65;nan;100453.59;4989285;28;20666;-68
2023/06/29 10:08:28;;;;;;;2.10;2.00;;;29.10;61.30;;;29.47;nan;100451.09;4971318;28;20643;-68
2023/06/29 10:11:01;;;;;;;2.63;2.43;;;28.90;61.50;;;29.50;nan;100448.72;4990275;28;20624;-67
2023/06/29 10:13:37;;;;;;;2.33;2.20;;;28.90;62.00;;;29.57;nan;100451.28;4988672;28;20674;-67
2023/06/29 10:16:09;;;;;;;2.13;2.03;;;28.90;61.80;;;29.69;nan;100454.75;4984943;28;20713;-67
2023/06/29 10:18:41;;;;;;;2.40;2.20;;;29.00;62.00;;;29.77;nan;100457.91;4989478;28;20638;-66
2023/06/29 10:21:08;;;;;;;2.20;2.10;;;29.20;61.90;;;29.86;nan;100445.72;4990683;28;21029;-67
2023/06/29 10:23:36;;;;;;;3.00;2.80;;;29.20;61.80;;;29.89;nan;100447.94;4988772;28;21012;-66
2023/06/29 10:26:05;;;;;;;2.17;2.07;;;29.30;61.80;;;30.02;nan;100444.13;4989638;28;20669;-67
2023/06/29 10:28:34;;;;;;;2.40;2.30;;;29.40;62.00;;;29.95;nan;100438.06;4990525;28;20638;-67